sensor_id;sensor_type;location;lat;lon;timestamp;P1;durP1;ratioP1;P2;durP2;ratioP2
17504;SDS011;8870;50.950;11.762;2022-11-15T00:00:47;4.22;;;3.83;;
17504;SDS011;8870;50.950;11.762;2022-11-15T00:06:29;4.30;;;3.90;;
17504;SDS011;8870;50.950;11.762;2022-11-15T00:12:22;4.57;;;3.97;;
17504;SDS011;8870;50.950;11.762;2022-11-15T00:17:59;4.45;;;3.80;;
17504;SDS011;8870;50.950;11.762;2022-11-15T00:23:49;3.88;;;3.30;;
17504;SDS011;8870;50.950;11.762;2022-11-15T00:29:28;4.07;;;3.60;;
17504;SDS011;8870;50.950;11.762;2022-11-15T00:35:19;3.92;;;3.50;;
17504;SDS011;8870;50.950;11.762;2022-11-15T00:40:58;3.40;;;3.10;;
17504;SDS011;8870;50.950;11.762;2022-11-15T00:46:51;4.00;;;3.60;;
17504;SDS011;8870;50.950;11.762;2022-11-15T00:52:27;4.40;;;3.50;;
17504;SDS011;8870;50.950;11.762;2022-11-15T00:58:17;5.55;;;3.67;;
17504;SDS011;8870;50.950;11.762;2022-11-15T01:04:04;4.25;;;3.80;;
17504;SDS011;8870;50.950;11.762;2022-11-15T01:09:55;4.22;;;3.70;;
17504;SDS011;8870;50.950;11.762;2022-11-15T01:15:32;5.90;;;3.55;;
17504;SDS011;8870;50.950;11.762;2022-11-15T01:21:26;4.43;;;3.83;;
17504;SDS011;8870;50.950;11.762;2022-11-15T01:27:03;4.35;;;3.88;;
17504;SDS011;8870;50.950;11.762;2022-11-15T01:32:52;4.13;;;3.72;;
17504;SDS011;8870;50.950;11.762;2022-11-15T01:38:31;4.15;;;3.40;;
17504;SDS011;8870;50.950;11.762;2022-11-15T01:50:19;3.17;;;2.78;;
17504;SDS011;8870;50.950;11.762;2022-11-15T01:56:16;3.90;;;2.92;;
17504;SDS011;8870;50.950;11.762;2022-11-15T02:02:03;3.60;;;2.50;;
17504;SDS011;8870;50.950;11.762;2022-11-15T02:07:53;2.88;;;2.30;;
17504;SDS011;8870;50.950;11.762;2022-11-15T02:13:34;4.05;;;2.38;;
17504;SDS011;8870;50.950;11.762;2022-11-15T02:19:28;3.75;;;2.60;;
17504;SDS011;8870;50.950;11.762;2022-11-15T02:25:36;3.53;;;2.65;;
17504;SDS011;8870;50.950;11.762;2022-11-15T02:31:35;3.67;;;2.58;;
17504;SDS011;8870;50.950;11.762;2022-11-15T02:37:21;2.63;;;2.30;;
17504;SDS011;8870;50.950;11.762;2022-11-15T02:43:18;3.47;;;2.13;;
17504;SDS011;8870;50.950;11.762;2022-11-15T02:49:16;3.03;;;2.10;;
17504;SDS011;8870;50.950;11.762;2022-11-15T03:01:03;2.78;;;1.98;;
17504;SDS011;8870;50.950;11.762;2022-11-15T03:07:07;2.42;;;2.08;;
17504;SDS011;8870;50.950;11.762;2022-11-15T03:12:54;2.97;;;2.08;;
17504;SDS011;8870;50.950;11.762;2022-11-15T03:18:47;4.07;;;2.30;;
17504;SDS011;8870;50.950;11.762;2022-11-15T03:24:34;2.70;;;2.28;;
17504;SDS011;8870;50.950;11.762;2022-11-15T03:30:25;2.88;;;2.30;;
17504;SDS011;8870;50.950;11.762;2022-11-15T03:36:04;3.03;;;2.30;;
17504;SDS011;8870;50.950;11.762;2022-11-15T03:42:00;3.28;;;2.45;;
17504;SDS011;8870;50.950;11.762;2022-11-15T03:47:48;3.05;;;2.50;;
17504;SDS011;8870;50.950;11.762;2022-11-15T03:53:41;4.28;;;2.30;;
17504;SDS011;8870;50.950;11.762;2022-11-15T03:59:21;3.08;;;2.50;;
17504;SDS011;8870;50.950;11.762;2022-11-15T04:05:10;3.10;;;2.80;;
17504;SDS011;8870;50.950;11.762;2022-11-15T04:11:01;2.80;;;2.40;;
17504;SDS011;8870;50.950;11.762;2022-11-15T04:16:41;3.47;;;2.40;;
17504;SDS011;8870;50.950;11.762;2022-11-15T04:22:31;3.25;;;2.50;;
17504;SDS011;8870;50.950;11.762;2022-11-15T04:28:21;3.67;;;2.60;;
17504;SDS011;8870;50.950;11.762;2022-11-15T04:34:14;2.90;;;2.30;;
17504;SDS011;8870;50.950;11.762;2022-11-15T04:39:51;4.00;;;2.38;;
17504;SDS011;8870;50.950;11.762;2022-11-15T04:45:40;3.10;;;2.45;;
17504;SDS011;8870;50.950;11.762;2022-11-15T04:51:19;2.70;;;2.40;;
17504;SDS011;8870;50.950;11.762;2022-11-15T04:57:10;3.85;;;2.22;;
17504;SDS011;8870;50.950;11.762;2022-11-15T05:02:53;3.85;;;2.30;;
17504;SDS011;8870;50.950;11.762;2022-11-15T05:08:59;2.78;;;2.10;;
17504;SDS011;8870;50.950;11.762;2022-11-15T05:14:36;3.90;;;2.40;;
17504;SDS011;8870;50.950;11.762;2022-11-15T05:20:27;3.50;;;2.75;;
17504;SDS011;8870;50.950;11.762;2022-11-15T05:26:07;2.55;;;2.20;;
17504;SDS011;8870;50.950;11.762;2022-11-15T05:31:57;3.47;;;2.25;;
17504;SDS011;8870;50.950;11.762;2022-11-15T05:37:34;2.22;;;2.03;;
17504;SDS011;8870;50.950;11.762;2022-11-15T05:43:30;3.42;;;2.30;;
17504;SDS011;8870;50.950;11.762;2022-11-15T05:49:11;3.38;;;2.10;;
17504;SDS011;8870;50.950;11.762;2022-11-15T05:55:05;3.08;;;2.40;;
17504;SDS011;8870;50.950;11.762;2022-11-15T06:00:48;3.45;;;2.30;;
17504;SDS011;8870;50.950;11.762;2022-11-15T06:06:37;4.10;;;2.60;;
17504;SDS011;8870;50.950;11.762;2022-11-15T06:12:14;3.58;;;2.42;;
17504;SDS011;8870;50.950;11.762;2022-11-15T06:18:06;3.53;;;2.33;;
17504;SDS011;8870;50.950;11.762;2022-11-15T06:23:43;3.53;;;2.40;;
17504;SDS011;8870;50.950;11.762;2022-11-15T06:29:26;3.00;;;2.00;;
17504;SDS011;8870;50.950;11.762;2022-11-15T06:35:14;2.55;;;2.10;;
17504;SDS011;8870;50.950;11.762;2022-11-15T06:40:51;3.90;;;2.35;;
17504;SDS011;8870;50.950;11.762;2022-11-15T06:46:40;3.20;;;2.22;;
17504;SDS011;8870;50.950;11.762;2022-11-15T06:52:20;2.58;;;2.13;;
17504;SDS011;8870;50.950;11.762;2022-11-15T06:58:12;3.03;;;2.00;;
17504;SDS011;8870;50.950;11.762;2022-11-15T07:03:55;1.80;;;1.50;;
17504;SDS011;8870;50.950;11.762;2022-11-15T07:09:48;2.75;;;1.77;;
17504;SDS011;8870;50.950;11.762;2022-11-15T07:15:25;2.33;;;1.83;;
17504;SDS011;8870;50.950;11.762;2022-11-15T07:21:14;2.05;;;1.80;;
17504;SDS011;8870;50.950;11.762;2022-11-15T07:26:56;1.73;;;1.40;;
17504;SDS011;8870;50.950;11.762;2022-11-15T07:32:45;3.60;;;1.60;;
17504;SDS011;8870;50.950;11.762;2022-11-15T07:38:22;2.30;;;1.50;;
17504;SDS011;8870;50.950;11.762;2022-11-15T07:44:18;1.52;;;1.35;;
17504;SDS011;8870;50.950;11.762;2022-11-15T07:49:55;1.50;;;1.35;;
17504;SDS011;8870;50.950;11.762;2022-11-15T07:55:45;1.60;;;1.50;;
17504;SDS011;8870;50.950;11.762;2022-11-15T08:01:31;1.48;;;1.38;;
17504;SDS011;8870;50.950;11.762;2022-11-15T08:07:20;4.20;;;1.80;;
17504;SDS011;8870;50.950;11.762;2022-11-15T08:12:58;3.83;;;1.70;;
17504;SDS011;8870;50.950;11.762;2022-11-15T08:18:50;1.58;;;1.30;;
17504;SDS011;8870;50.950;11.762;2022-11-15T08:24:27;1.33;;;1.10;;
17504;SDS011;8870;50.950;11.762;2022-11-15T08:30:16;1.63;;;1.30;;
17504;SDS011;8870;50.950;11.762;2022-11-15T08:35:58;1.83;;;1.15;;
17504;SDS011;8870;50.950;11.762;2022-11-15T08:41:48;1.20;;;1.10;;
17504;SDS011;8870;50.950;11.762;2022-11-15T08:47:25;1.50;;;1.23;;
17504;SDS011;8870;50.950;11.762;2022-11-15T08:53:17;1.30;;;1.20;;
17504;SDS011;8870;50.950;11.762;2022-11-15T08:58:54;2.35;;;1.38;;
17504;SDS011;8870;50.950;11.762;2022-11-15T09:04:44;1.40;;;1.00;;
17504;SDS011;8870;50.950;11.762;2022-11-15T09:10:24;2.05;;;1.30;;
17504;SDS011;8870;50.950;11.762;2022-11-15T09:16:13;2.15;;;1.30;;
17504;SDS011;8870;50.950;11.762;2022-11-15T09:21:50;1.27;;;1.10;;
17504;SDS011;8870;50.950;11.762;2022-11-15T09:27:42;1.80;;;1.20;;
17504;SDS011;8870;50.950;11.762;2022-11-15T09:33:19;1.20;;;1.10;;
17504;SDS011;8870;50.950;11.762;2022-11-15T09:39:08;1.15;;;1.00;;
17504;SDS011;8870;50.950;11.762;2022-11-15T09:44:51;1.13;;;1.02;;
17504;SDS011;8870;50.950;11.762;2022-11-15T09:51:21;1.20;;;1.10;;
17504;SDS011;8870;50.950;11.762;2022-11-15T09:56:43;1.60;;;1.20;;
17504;SDS011;8870;50.950;11.762;2022-11-15T10:02:26;0.90;;;0.90;;
17504;SDS011;8870;50.950;11.762;2022-11-15T10:08:13;1.65;;;1.25;;
17504;SDS011;8870;50.950;11.762;2022-11-15T10:13:50;1.10;;;0.82;;
17504;SDS011;8870;50.950;11.762;2022-11-15T10:19:28;1.50;;;1.00;;
17504;SDS011;8870;50.950;11.762;2022-11-15T10:30:48;0.90;;;0.90;;
17504;SDS011;8870;50.950;11.762;2022-11-15T10:36:20;1.10;;;1.00;;
17504;SDS011;8870;50.950;11.762;2022-11-15T10:41:53;1.40;;;0.98;;
17504;SDS011;8870;50.950;11.762;2022-11-15T10:47:20;2.03;;;0.90;;
17504;SDS011;8870;50.950;11.762;2022-11-15T10:53:00;2.90;;;1.00;;
17504;SDS011;8870;50.950;11.762;2022-11-15T10:58:34;1.02;;;0.90;;
17504;SDS011;8870;50.950;11.762;2022-11-15T11:03:58;0.90;;;0.80;;
17504;SDS011;8870;50.950;11.762;2022-11-15T11:09:33;1.27;;;0.90;;
17504;SDS011;8870;50.950;11.762;2022-11-15T11:14:53;2.03;;;0.90;;
17504;SDS011;8870;50.950;11.762;2022-11-15T11:20:25;2.70;;;0.95;;
17504;SDS011;8870;50.950;11.762;2022-11-15T11:26:01;1.53;;;0.80;;
17504;SDS011;8870;50.950;11.762;2022-11-15T11:31:47;1.23;;;1.00;;
17504;SDS011;8870;50.950;11.762;2022-11-15T11:37:12;1.42;;;1.10;;
17504;SDS011;8870;50.950;11.762;2022-11-15T11:42:55;2.88;;;1.00;;
17504;SDS011;8870;50.950;11.762;2022-11-15T11:48:21;1.45;;;1.10;;
17504;SDS011;8870;50.950;11.762;2022-11-15T11:54:03;1.83;;;1.00;;
17504;SDS011;8870;50.950;11.762;2022-11-15T11:59:33;5.82;;;1.20;;
17504;SDS011;8870;50.950;11.762;2022-11-15T12:05:20;1.77;;;1.08;;
17504;SDS011;8870;50.950;11.762;2022-11-15T12:11:00;0.90;;;0.85;;
17504;SDS011;8870;50.950;11.762;2022-11-15T12:16:30;2.13;;;0.93;;
17504;SDS011;8870;50.950;11.762;2022-11-15T12:22:03;2.20;;;0.80;;
17504;SDS011;8870;50.950;11.762;2022-11-15T12:27:29;2.87;;;0.90;;
17504;SDS011;8870;50.950;11.762;2022-11-15T12:33:28;1.65;;;1.00;;
17504;SDS011;8870;50.950;11.762;2022-11-15T12:38:54;2.97;;;1.00;;
17504;SDS011;8870;50.950;11.762;2022-11-15T12:50:21;1.50;;;0.90;;
17504;SDS011;8870;50.950;11.762;2022-11-15T12:56:25;1.00;;;0.90;;
17504;SDS011;8870;50.950;11.762;2022-11-15T13:01:59;1.50;;;0.93;;
17504;SDS011;8870;50.950;11.762;2022-11-15T13:13:40;1.13;;;0.80;;
17504;SDS011;8870;50.950;11.762;2022-11-15T13:19:16;1.00;;;0.90;;
17504;SDS011;8870;50.950;11.762;2022-11-15T13:24:43;1.67;;;0.80;;
17504;SDS011;8870;50.950;11.762;2022-11-15T13:30:16;1.00;;;0.90;;
17504;SDS011;8870;50.950;11.762;2022-11-15T13:35:39;1.50;;;0.90;;
17504;SDS011;8870;50.950;11.762;2022-11-15T13:41:17;1.42;;;0.80;;
17504;SDS011;8870;50.950;11.762;2022-11-15T13:46:39;1.30;;;0.73;;
17504;SDS011;8870;50.950;11.762;2022-11-15T13:52:13;1.15;;;0.80;;
17504;SDS011;8870;50.950;11.762;2022-11-15T13:57:36;1.67;;;0.80;;
17504;SDS011;8870;50.950;11.762;2022-11-15T14:03:15;1.08;;;0.80;;
17504;SDS011;8870;50.950;11.762;2022-11-15T14:08:36;1.70;;;0.88;;
17504;SDS011;8870;50.950;11.762;2022-11-15T14:14:15;2.03;;;0.90;;
17504;SDS011;8870;50.950;11.762;2022-11-15T14:19:35;1.70;;;0.88;;
17504;SDS011;8870;50.950;11.762;2022-11-15T14:25:15;0.90;;;0.80;;
17504;SDS011;8870;50.950;11.762;2022-11-15T14:30:38;3.40;;;1.00;;
17504;SDS011;8870;50.950;11.762;2022-11-15T14:36:12;2.13;;;0.90;;
17504;SDS011;8870;50.950;11.762;2022-11-15T14:41:34;1.45;;;0.90;;
17504;SDS011;8870;50.950;11.762;2022-11-15T14:47:09;1.33;;;0.90;;
17504;SDS011;8870;50.950;11.762;2022-11-15T14:52:28;1.80;;;0.75;;
17504;SDS011;8870;50.950;11.762;2022-11-15T14:58:00;2.75;;;1.00;;
17504;SDS011;8870;50.950;11.762;2022-11-15T15:03:25;2.10;;;0.90;;
17504;SDS011;8870;50.950;11.762;2022-11-15T15:08:56;0.93;;;0.80;;
17504;SDS011;8870;50.950;11.762;2022-11-15T15:14:15;1.48;;;0.98;;
17504;SDS011;8870;50.950;11.762;2022-11-15T15:19:51;1.98;;;1.10;;
17504;SDS011;8870;50.950;11.762;2022-11-15T15:25:19;2.50;;;0.98;;
17504;SDS011;8870;50.950;11.762;2022-11-15T15:30:53;1.27;;;1.00;;
17504;SDS011;8870;50.950;11.762;2022-11-15T15:36:17;1.27;;;0.98;;
17504;SDS011;8870;50.950;11.762;2022-11-15T15:41:49;1.07;;;0.97;;
17504;SDS011;8870;50.950;11.762;2022-11-15T15:47:09;1.58;;;0.90;;
17504;SDS011;8870;50.950;11.762;2022-11-15T15:52:45;2.35;;;1.40;;
17504;SDS011;8870;50.950;11.762;2022-11-15T15:58:04;1.30;;;1.20;;
17504;SDS011;8870;50.950;11.762;2022-11-15T16:03:35;2.50;;;1.30;;
17504;SDS011;8870;50.950;11.762;2022-11-15T16:08:57;1.35;;;1.00;;
17504;SDS011;8870;50.950;11.762;2022-11-15T16:14:30;1.65;;;1.00;;
17504;SDS011;8870;50.950;11.762;2022-11-15T16:19:49;1.17;;;0.90;;
17504;SDS011;8870;50.950;11.762;2022-11-15T16:25:23;1.52;;;1.23;;
17504;SDS011;8870;50.950;11.762;2022-11-15T16:30:42;3.33;;;1.02;;
17504;SDS011;8870;50.950;11.762;2022-11-15T16:36:15;1.73;;;1.15;;
17504;SDS011;8870;50.950;11.762;2022-11-15T16:41:40;2.03;;;1.10;;
17504;SDS011;8870;50.950;11.762;2022-11-15T16:47:15;1.20;;;1.10;;
17504;SDS011;8870;50.950;11.762;2022-11-15T16:52:37;2.15;;;1.33;;
17504;SDS011;8870;50.950;11.762;2022-11-15T16:58:11;3.08;;;1.45;;
17504;SDS011;8870;50.950;11.762;2022-11-15T17:03:30;1.70;;;1.60;;
17504;SDS011;8870;50.950;11.762;2022-11-15T17:09:00;2.22;;;1.65;;
17504;SDS011;8870;50.950;11.762;2022-11-15T17:14:21;1.83;;;1.45;;
17504;SDS011;8870;50.950;11.762;2022-11-15T17:19:55;2.15;;;1.48;;
17504;SDS011;8870;50.950;11.762;2022-11-15T17:25:14;1.77;;;1.60;;
17504;SDS011;8870;50.950;11.762;2022-11-15T17:30:48;1.65;;;1.50;;
17504;SDS011;8870;50.950;11.762;2022-11-15T17:41:55;2.25;;;1.50;;
17504;SDS011;8870;50.950;11.762;2022-11-15T17:47:15;2.83;;;1.85;;
17504;SDS011;8870;50.950;11.762;2022-11-15T17:52:46;2.35;;;2.15;;
17504;SDS011;8870;50.950;11.762;2022-11-15T17:58:05;2.17;;;1.83;;
17504;SDS011;8870;50.950;11.762;2022-11-15T18:03:41;1.40;;;1.30;;
17504;SDS011;8870;50.950;11.762;2022-11-15T18:09:14;3.88;;;1.42;;
17504;SDS011;8870;50.950;11.762;2022-11-15T18:14:44;1.98;;;1.30;;
17504;SDS011;8870;50.950;11.762;2022-11-15T18:20:17;2.35;;;1.38;;
17504;SDS011;8870;50.950;11.762;2022-11-15T18:25:36;2.50;;;1.50;;
17504;SDS011;8870;50.950;11.762;2022-11-15T18:31:11;1.95;;;1.58;;
17504;SDS011;8870;50.950;11.762;2022-11-15T18:36:33;1.58;;;1.30;;
17504;SDS011;8870;50.950;11.762;2022-11-15T18:42:04;1.60;;;1.30;;
17504;SDS011;8870;50.950;11.762;2022-11-15T18:47:23;1.95;;;1.30;;
17504;SDS011;8870;50.950;11.762;2022-11-15T18:52:56;2.03;;;1.50;;
17504;SDS011;8870;50.950;11.762;2022-11-15T18:58:15;3.05;;;1.80;;
17504;SDS011;8870;50.950;11.762;2022-11-15T19:03:46;3.78;;;2.40;;
17504;SDS011;8870;50.950;11.762;2022-11-15T19:09:09;2.60;;;1.80;;
17504;SDS011;8870;50.950;11.762;2022-11-15T19:14:30;3.35;;;1.80;;
17504;SDS011;8870;50.950;11.762;2022-11-15T19:20:01;2.10;;;1.90;;
17504;SDS011;8870;50.950;11.762;2022-11-15T19:25:21;3.33;;;2.60;;
17504;SDS011;8870;50.950;11.762;2022-11-15T19:31:01;2.53;;;1.85;;
17504;SDS011;8870;50.950;11.762;2022-11-15T19:36:23;2.15;;;1.70;;
17504;SDS011;8870;50.950;11.762;2022-11-15T19:41:58;3.30;;;2.00;;
17504;SDS011;8870;50.950;11.762;2022-11-15T19:47:17;2.33;;;1.70;;
17504;SDS011;8870;50.950;11.762;2022-11-15T19:52:53;3.35;;;1.90;;
17504;SDS011;8870;50.950;11.762;2022-11-15T19:58:21;2.40;;;1.40;;
17504;SDS011;8870;50.950;11.762;2022-11-15T20:03:42;2.70;;;1.60;;
17504;SDS011;8870;50.950;11.762;2022-11-15T20:09:15;2.90;;;1.70;;
17504;SDS011;8870;50.950;11.762;2022-11-15T20:14:36;3.33;;;1.73;;
17504;SDS011;8870;50.950;11.762;2022-11-15T20:20:09;2.58;;;1.90;;
17504;SDS011;8870;50.950;11.762;2022-11-15T20:25:28;2.97;;;1.80;;
17504;SDS011;8870;50.950;11.762;2022-11-15T20:31:02;2.50;;;1.50;;
17504;SDS011;8870;50.950;11.762;2022-11-15T20:36:22;1.65;;;1.50;;
17504;SDS011;8870;50.950;11.762;2022-11-15T20:41:54;2.03;;;1.40;;
17504;SDS011;8870;50.950;11.762;2022-11-15T20:47:14;2.30;;;1.48;;
17504;SDS011;8870;50.950;11.762;2022-11-15T20:52:46;2.15;;;1.50;;
17504;SDS011;8870;50.950;11.762;2022-11-15T21:03:39;3.40;;;1.50;;
17504;SDS011;8870;50.950;11.762;2022-11-15T21:09:12;1.85;;;1.52;;
17504;SDS011;8870;50.950;11.762;2022-11-15T21:14:43;2.60;;;1.80;;
17504;SDS011;8870;50.950;11.762;2022-11-15T21:20:17;1.48;;;1.35;;
17504;SDS011;8870;50.950;11.762;2022-11-15T21:25:36;2.03;;;1.40;;
17504;SDS011;8870;50.950;11.762;2022-11-15T21:31:07;3.15;;;1.70;;
17504;SDS011;8870;50.950;11.762;2022-11-15T21:36:28;2.15;;;1.45;;
17504;SDS011;8870;50.950;11.762;2022-11-15T21:42:00;1.92;;;1.42;;
17504;SDS011;8870;50.950;11.762;2022-11-15T21:47:18;1.88;;;1.40;;
17504;SDS011;8870;50.950;11.762;2022-11-15T21:52:51;2.10;;;1.50;;
17504;SDS011;8870;50.950;11.762;2022-11-15T21:58:10;1.42;;;1.30;;
17504;SDS011;8870;50.950;11.762;2022-11-15T22:03:41;1.27;;;1.17;;
17504;SDS011;8870;50.950;11.762;2022-11-15T22:09:10;2.28;;;1.23;;
17504;SDS011;8870;50.950;11.762;2022-11-15T22:14:41;2.83;;;1.38;;
17504;SDS011;8870;50.950;11.762;2022-11-15T22:19:59;2.15;;;1.50;;
17504;SDS011;8870;50.950;11.762;2022-11-15T22:25:52;3.58;;;1.50;;
17504;SDS011;8870;50.950;11.762;2022-11-15T22:31:11;2.42;;;1.30;;
17504;SDS011;8870;50.950;11.762;2022-11-15T22:36:43;3.05;;;1.60;;
17504;SDS011;8870;50.950;11.762;2022-11-15T22:42:23;2.45;;;1.55;;
17504;SDS011;8870;50.950;11.762;2022-11-15T22:47:56;2.45;;;1.42;;
17504;SDS011;8870;50.950;11.762;2022-11-15T22:53:14;3.00;;;1.50;;
17504;SDS011;8870;50.950;11.762;2022-11-15T22:58:47;2.75;;;1.50;;
17504;SDS011;8870;50.950;11.762;2022-11-15T23:04:06;2.13;;;1.33;;
17504;SDS011;8870;50.950;11.762;2022-11-15T23:09:37;1.50;;;1.35;;
17504;SDS011;8870;50.950;11.762;2022-11-15T23:15:02;2.45;;;1.60;;
17504;SDS011;8870;50.950;11.762;2022-11-15T23:20:34;1.60;;;1.50;;
17504;SDS011;8870;50.950;11.762;2022-11-15T23:25:56;2.58;;;1.40;;
17504;SDS011;8870;50.950;11.762;2022-11-15T23:31:30;2.90;;;1.58;;
17504;SDS011;8870;50.950;11.762;2022-11-15T23:37:10;2.20;;;1.40;;
17504;SDS011;8870;50.950;11.762;2022-11-15T23:42:43;1.35;;;1.20;;
17504;SDS011;8870;50.950;11.762;2022-11-15T23:48:04;2.47;;;1.50;;
17504;SDS011;8870;50.950;11.762;2022-11-15T23:53:36;2.53;;;1.60;;
17504;SDS011;8870;50.950;11.762;2022-11-15T23:58:54;2.03;;;1.48;;
